createdAt,value
2016-04-19T00:00:07.402Z,8.93
2016-04-19T00:00:17.402Z,8.86
2016-04-19T00:00:27.402Z,8.9
2016-04-19T00:00:37.420Z,8.95
2016-04-19T00:00:47.420Z,8.9
2016-04-19T00:00:57.420Z,8.86
2016-04-19T00:01:07.436Z,8.93
2016-04-19T00:01:17.420Z,8.93
2016-04-19T00:01:27.436Z,8.96
2016-04-19T00:01:37.439Z,8.92
2016-04-19T00:01:47.439Z,8.86
2016-04-19T00:01:57.439Z,8.87
2016-04-19T00:02:07.455Z,8.86
2016-04-19T00:02:17.455Z,8.89
2016-04-19T00:02:27.455Z,8.9
2016-04-19T00:02:37.488Z,8.9
2016-04-19T00:02:47.472Z,8.96
2016-04-19T00:02:57.472Z,8.92
2016-04-19T00:03:07.472Z,8.84
2016-04-19T00:03:17.472Z,8.95
2016-04-19T00:03:27.488Z,8.86
2016-04-19T00:03:37.506Z,8.89
2016-04-19T00:03:47.491Z,8.95
2016-04-19T00:03:57.506Z,8.86
2016-04-19T00:04:07.506Z,8.89
2016-04-19T00:04:17.506Z,8.92
2016-04-19T00:04:27.506Z,8.89
2016-04-19T00:04:37.524Z,8.96
2016-04-19T00:04:47.524Z,8.89
2016-04-19T00:04:57.524Z,8.95
2016-04-19T00:05:07.524Z,8.84
2016-04-19T00:05:17.540Z,8.86
2016-04-19T00:05:27.540Z,8.9
2016-04-19T00:05:37.574Z,8.93
2016-04-19T00:05:47.543Z,8.9
2016-04-19T00:05:57.558Z,8.92
2016-04-19T00:06:07.558Z,8.93
2016-04-19T00:06:17.558Z,8.92
2016-04-19T00:06:27.558Z,8.87
2016-04-19T00:06:37.577Z,8.92
2016-04-19T00:06:47.577Z,8.96
2016-04-19T00:06:57.577Z,8.93
2016-04-19T00:07:07.577Z,8.86
2016-04-19T00:07:17.593Z,8.84
2016-04-19T00:07:27.593Z,8.87
2016-04-19T00:07:37.610Z,8.92
2016-04-19T00:07:47.610Z,8.86
2016-04-19T00:07:57.610Z,8.95
2016-04-19T00:08:07.610Z,8.93
2016-04-19T00:08:17.626Z,8.89
2016-04-19T00:08:27.626Z,8.84
2016-04-19T00:08:37.630Z,8.92
2016-04-19T00:08:47.630Z,8.84
2016-04-19T00:08:57.630Z,8.89
2016-04-19T00:09:07.645Z,8.89
2016-04-19T00:09:17.645Z,8.86
2016-04-19T00:09:27.661Z,8.93
2016-04-19T00:09:37.663Z,8.92
2016-04-19T00:09:47.663Z,8.93
2016-04-19T00:09:57.663Z,8.92
2016-04-19T00:10:07.663Z,8.92
2016-04-19T00:10:17.663Z,8.9
2016-04-19T00:10:27.679Z,8.84
2016-04-19T00:10:37.696Z,8.81
2016-04-19T00:10:47.681Z,8.89
2016-04-19T00:10:57.681Z,8.78
2016-04-19T00:11:07.696Z,8.89
2016-04-19T00:11:17.696Z,8.9
2016-04-19T00:11:27.696Z,8.89
2016-04-19T00:11:37.715Z,8.82
2016-04-19T00:11:47.715Z,8.86
2016-04-19T00:11:57.715Z,8.84
2016-04-19T00:12:07.715Z,8.86
2016-04-19T00:12:17.715Z,8.89
2016-04-19T00:12:27.731Z,8.84
2016-04-19T00:12:37.749Z,8.93
2016-04-19T00:12:47.734Z,8.82
2016-04-19T00:12:57.734Z,8.9
2016-04-19T00:13:07.749Z,8.84
2016-04-19T00:13:17.749Z,8.89
2016-04-19T00:13:27.749Z,8.86
2016-04-19T00:13:37.768Z,8.86
2016-04-19T00:13:47.768Z,8.87
2016-04-19T00:13:57.768Z,8.89
2016-04-19T00:14:07.768Z,8.81
2016-04-19T00:14:17.783Z,8.89
2016-04-19T00:14:27.783Z,8.87
2016-04-19T00:14:37.817Z,8.78
2016-04-19T00:14:47.785Z,8.84
2016-04-19T00:14:57.801Z,8.89
2016-04-19T00:15:07.817Z,8.86
2016-04-19T00:15:17.801Z,8.86
2016-04-19T00:15:27.801Z,8.84
2016-04-19T00:15:37.820Z,8.79
2016-04-19T00:15:47.820Z,8.84
2016-04-19T00:15:57.835Z,8.79
2016-04-19T00:16:07.820Z,8.82
2016-04-19T00:16:17.835Z,8.89
2016-04-19T00:16:27.835Z,8.84
2016-04-19T00:16:37.853Z,8.74
2016-04-19T00:16:47.853Z,8.9
2016-04-19T00:16:57.853Z,8.86
2016-04-19T00:17:07.853Z,8.84
2016-04-19T00:17:17.853Z,8.84
2016-04-19T00:17:27.869Z,8.86
2016-04-19T00:17:37.888Z,8.81
2016-04-19T00:17:47.873Z,8.82
2016-04-19T00:17:57.873Z,8.89
2016-04-19T00:18:07.888Z,8.82
2016-04-19T00:18:17.888Z,8.82
2016-04-19T00:18:27.888Z,8.86
2016-04-19T00:18:37.906Z,8.84
2016-04-19T00:18:47.906Z,8.82
2016-04-19T00:18:57.906Z,8.86
2016-04-19T00:19:07.906Z,8.86
2016-04-19T00:19:17.906Z,8.84
2016-04-19T00:19:27.921Z,8.86
2016-04-19T00:19:37.939Z,8.82
2016-04-19T00:19:47.923Z,8.84
2016-04-19T00:19:57.939Z,8.82
2016-04-19T00:20:07.939Z,8.86
2016-04-19T00:20:17.939Z,8.84
2016-04-19T00:20:27.939Z,8.86
2016-04-19T00:20:37.958Z,8.87
2016-04-19T00:20:47.958Z,8.89
2016-04-19T00:20:57.958Z,8.82
2016-04-19T00:21:07.958Z,8.81
2016-04-19T00:21:17.980Z,8.87
2016-04-19T00:21:27.968Z,8.84
2016-04-19T00:21:37.987Z,8.89
2016-04-19T00:21:47.988Z,8.78
2016-04-19T00:21:57.988Z,8.84
2016-04-19T00:22:07.988Z,8.89
2016-04-19T00:22:18.004Z,8.81
2016-04-19T00:22:28.004Z,8.84
2016-04-19T00:22:38.007Z,8.84
2016-04-19T00:22:48.007Z,8.86
2016-04-19T00:22:58.007Z,8.86
2016-04-19T00:23:08.022Z,8.84
2016-04-19T00:23:18.038Z,8.87
2016-04-19T00:23:28.022Z,8.84
2016-04-19T00:23:38.024Z,8.89
2016-04-19T00:23:48.040Z,8.79
2016-04-19T00:23:58.040Z,8.82
2016-04-19T00:24:08.040Z,8.84
2016-04-19T00:24:18.040Z,8.87
2016-04-19T00:24:28.056Z,8.84
2016-04-19T00:24:38.090Z,8.86
2016-04-19T00:24:48.059Z,8.86
2016-04-19T00:24:58.059Z,8.86
2016-04-19T00:25:08.074Z,8.86
2016-04-19T00:25:18.074Z,8.81
2016-04-19T00:25:28.074Z,8.82
2016-04-19T00:25:38.093Z,8.82
2016-04-19T00:25:48.093Z,8.82
2016-04-19T00:25:58.093Z,8.89
2016-04-19T00:26:08.093Z,8.82
2016-04-19T00:26:18.093Z,8.82
2016-04-19T00:26:28.108Z,8.84
2016-04-19T00:26:38.126Z,8.87
2016-04-19T00:26:48.110Z,8.84
2016-04-19T00:26:58.126Z,8.81
2016-04-19T00:27:08.126Z,8.82
2016-04-19T00:27:18.142Z,8.81
2016-04-19T00:27:28.126Z,8.89
2016-04-19T00:27:38.146Z,8.84
2016-04-19T00:27:48.146Z,8.84
2016-04-19T00:27:58.146Z,8.87
2016-04-19T00:28:08.161Z,8.87
2016-04-19T00:28:18.161Z,8.79
2016-04-19T00:28:28.161Z,8.84
2016-04-19T00:28:38.179Z,8.82
2016-04-19T00:28:48.179Z,8.79
2016-04-19T00:28:58.179Z,8.84
2016-04-19T00:29:08.179Z,8.81
2016-04-19T00:29:18.179Z,8.84
2016-04-19T00:29:28.195Z,8.82
2016-04-19T00:29:38.212Z,8.86
2016-04-19T00:29:48.197Z,8.84
2016-04-19T00:29:58.197Z,8.81
2016-04-19T00:30:08.212Z,8.86
2016-04-19T00:30:18.212Z,8.81
2016-04-19T00:30:28.212Z,8.82
2016-04-19T00:30:38.232Z,8.84
2016-04-19T00:30:48.232Z,8.89
2016-04-19T00:30:58.232Z,8.84
2016-04-19T00:31:08.232Z,8.84
2016-04-19T00:31:18.232Z,8.86
2016-04-19T00:31:28.247Z,8.89
2016-04-19T00:31:38.265Z,8.84
2016-04-19T00:31:48.249Z,8.82
2016-04-19T00:31:58.249Z,8.84
2016-04-19T00:32:08.265Z,8.81
2016-04-19T00:32:18.265Z,8.82
2016-04-19T00:32:28.265Z,8.89
2016-04-19T00:32:38.284Z,8.86
2016-04-19T00:32:48.284Z,8.81
2016-04-19T00:32:58.284Z,8.9
2016-04-19T00:33:08.284Z,8.82
2016-04-19T00:33:18.284Z,8.82
2016-04-19T00:33:28.299Z,8.87
2016-04-19T00:33:38.318Z,8.82
2016-04-19T00:33:48.302Z,8.87
2016-04-19T00:33:58.302Z,8.87
2016-04-19T00:34:08.318Z,8.9
2016-04-19T00:34:18.318Z,8.81
2016-04-19T00:34:28.318Z,8.84
2016-04-19T00:34:38.351Z,8.89
2016-04-19T00:34:48.336Z,8.82
2016-04-19T00:34:58.336Z,8.84
2016-04-19T00:35:08.336Z,8.79
2016-04-19T00:35:18.351Z,8.77
2016-04-19T00:35:28.351Z,8.86
2016-04-19T00:35:38.370Z,8.81
2016-04-19T00:35:48.354Z,8.81
2016-04-19T00:35:58.370Z,8.81
2016-04-19T00:36:08.370Z,8.78
2016-04-19T00:36:18.370Z,8.72
2016-04-19T00:36:28.370Z,8.81
2016-04-19T00:36:38.387Z,8.74
2016-04-19T00:36:48.387Z,8.72
2016-04-19T00:36:58.387Z,8.69
2016-04-19T00:37:08.403Z,8.77
2016-04-19T00:37:18.403Z,8.75
2016-04-19T00:37:28.403Z,8.77
2016-04-19T00:37:38.422Z,8.69
2016-04-19T00:37:48.422Z,8.71
2016-04-19T00:37:58.422Z,8.64
2016-04-19T00:38:08.422Z,8.69
2016-04-19T00:38:18.422Z,8.61
2016-04-19T00:38:28.437Z,8.63
2016-04-19T00:38:38.439Z,8.63
2016-04-19T00:38:48.439Z,8.61
2016-04-19T00:38:58.455Z,8.72
2016-04-19T00:39:08.455Z,8.68
2016-04-19T00:39:18.455Z,8.71
2016-04-19T00:39:28.455Z,8.61
2016-04-19T00:39:38.490Z,8.68
2016-04-19T00:39:48.475Z,8.64
2016-04-19T00:39:58.475Z,8.59
2016-04-19T00:40:08.475Z,8.61
2016-04-19T00:40:18.475Z,8.66
2016-04-19T00:40:28.490Z,8.6
2016-04-19T00:40:38.508Z,8.54
2016-04-19T00:40:48.492Z,8.59
2016-04-19T00:40:58.492Z,8.59
2016-04-19T00:41:08.508Z,8.54
2016-04-19T00:41:18.508Z,8.49
2016-04-19T00:41:28.508Z,8.46
2016-04-19T00:41:38.526Z,8.46
2016-04-19T00:41:48.526Z,8.5
2016-04-19T00:41:58.526Z,8.45
2016-04-19T00:42:08.542Z,8.39
2016-04-19T00:42:18.542Z,8.38
2016-04-19T00:42:28.542Z,8.44
2016-04-19T00:42:38.545Z,8.49
2016-04-19T00:42:48.545Z,8.34
2016-04-19T00:42:58.561Z,8.34
2016-04-19T00:43:08.561Z,8.36
2016-04-19T00:43:18.561Z,8.34
2016-04-19T00:43:28.561Z,8.36
2016-04-19T00:43:38.579Z,8.36
2016-04-19T00:43:48.579Z,8.36
2016-04-19T00:43:58.579Z,8.35
2016-04-19T00:44:08.595Z,8.34
2016-04-19T00:44:18.595Z,8.34
2016-04-19T00:44:28.595Z,8.35
2016-04-19T00:44:38.613Z,8.28
2016-04-19T00:44:48.597Z,8.31
2016-04-19T00:44:58.613Z,8.27
2016-04-19T00:45:08.613Z,8.31
2016-04-19T00:45:18.613Z,8.27
2016-04-19T00:45:28.613Z,8.27
2016-04-19T00:45:38.631Z,8.28
2016-04-19T00:45:48.631Z,8.17
2016-04-19T00:45:58.631Z,8.21
2016-04-19T00:46:08.647Z,8.2
2016-04-19T00:46:18.647Z,8.2
2016-04-19T00:46:28.647Z,8.21
2016-04-19T00:46:38.664Z,8.18
2016-04-19T00:46:48.649Z,8.2
2016-04-19T00:46:58.664Z,8.23
2016-04-19T00:47:08.664Z,8.2
2016-04-19T00:47:18.664Z,8.14
2016-04-19T00:47:28.680Z,8.17
2016-04-19T00:47:38.699Z,8.09
2016-04-19T00:47:48.683Z,8.21
2016-04-19T00:47:58.699Z,8.2
2016-04-19T00:48:08.699Z,8.11
2016-04-19T00:48:18.699Z,8.05
2016-04-19T00:48:28.699Z,8.05
2016-04-19T00:48:38.717Z,8.11
2016-04-19T00:48:48.717Z,8.01
2016-04-19T00:48:58.717Z,8.11
2016-04-19T00:49:08.733Z,7.99
2016-04-19T00:49:18.717Z,7.99
2016-04-19T00:49:28.733Z,8.03
2016-04-19T00:49:38.752Z,7.93
2016-04-19T00:49:48.736Z,7.98
2016-04-19T00:49:58.752Z,7.98
2016-04-19T00:50:08.752Z,7.87
2016-04-19T00:50:18.752Z,7.91
2016-04-19T00:50:28.752Z,7.91
2016-04-19T00:50:38.754Z,7.83
2016-04-19T00:50:48.769Z,7.8
2016-04-19T00:50:58.769Z,7.83
2016-04-19T00:51:08.769Z,7.83
2016-04-19T00:51:18.769Z,7.87
2016-04-19T00:51:28.785Z,7.83
2016-04-19T00:51:38.803Z,7.81
2016-04-19T00:51:48.788Z,7.81
2016-04-19T00:51:58.788Z,7.83
2016-04-19T00:52:08.803Z,7.7
2016-04-19T00:52:18.803Z,7.77
2016-04-19T00:52:28.803Z,7.69
2016-04-19T00:52:38.821Z,7.77
2016-04-19T00:52:48.821Z,7.74
2016-04-19T00:52:58.821Z,7.69
2016-04-19T00:53:08.821Z,7.7
2016-04-19T00:53:18.821Z,7.7
2016-04-19T00:53:28.852Z,7.7
2016-04-19T00:53:38.855Z,7.64
2016-04-19T00:53:48.840Z,7.61
2016-04-19T00:53:58.855Z,7.72
2016-04-19T00:54:08.855Z,7.74
2016-04-19T00:54:18.855Z,7.7
2016-04-19T00:54:28.855Z,7.75
2016-04-19T00:54:38.873Z,7.59
2016-04-19T00:54:48.873Z,7.64
2016-04-19T00:54:58.873Z,7.61
2016-04-19T00:55:08.873Z,7.61
2016-04-19T00:55:18.889Z,7.56
2016-04-19T00:55:28.889Z,7.61
2016-04-19T00:55:38.907Z,7.66
2016-04-19T00:55:48.892Z,7.61
2016-04-19T00:55:58.907Z,7.62
2016-04-19T00:56:08.907Z,7.61
2016-04-19T00:56:18.907Z,7.58
2016-04-19T00:56:28.907Z,7.59
2016-04-19T00:56:38.927Z,7.62
2016-04-19T00:56:48.927Z,7.59
2016-04-19T00:56:58.927Z,7.59
2016-04-19T00:57:08.927Z,7.56
2016-04-19T00:57:18.942Z,7.55
2016-04-19T00:57:28.942Z,7.58
2016-04-19T00:57:38.960Z,7.58
2016-04-19T00:57:48.944Z,7.61
2016-04-19T00:57:58.960Z,7.59
2016-04-19T00:58:08.960Z,7.59
2016-04-19T00:58:18.960Z,7.55
2016-04-19T00:58:28.960Z,7.58
2016-04-19T00:58:38.979Z,7.58
2016-04-19T00:58:48.979Z,7.61
2016-04-19T00:58:58.979Z,7.58
2016-04-19T00:59:08.994Z,7.66
2016-04-19T00:59:18.994Z,7.58
2016-04-19T00:59:28.994Z,7.61
2016-04-19T00:59:39.012Z,7.59
2016-04-19T00:59:48.996Z,7.59
2016-04-19T00:59:59.012Z,7.58
2016-04-19T01:00:09.012Z,7.61
2016-04-19T01:00:19.012Z,7.53
2016-04-19T01:00:29.028Z,7.61
2016-04-19T01:00:39.046Z,7.61
2016-04-19T01:00:49.031Z,7.55
2016-04-19T01:00:59.031Z,7.61
2016-04-19T01:01:09.046Z,7.61
2016-04-19T01:01:19.046Z,7.58
2016-04-19T01:01:29.046Z,7.62
2016-04-19T01:01:39.065Z,7.62
2016-04-19T01:01:49.065Z,7.58
2016-04-19T01:01:59.065Z,7.56
2016-04-19T01:02:09.065Z,7.56
2016-04-19T01:02:19.065Z,7.59
2016-04-19T01:02:29.080Z,7.59
2016-04-19T01:02:39.083Z,7.59
2016-04-19T01:02:49.083Z,7.61
2016-04-19T01:02:59.083Z,7.64
2016-04-19T01:03:09.083Z,7.58
2016-04-19T01:03:19.099Z,7.62
2016-04-19T01:03:29.099Z,7.61
2016-04-19T01:03:39.117Z,7.64
2016-04-19T01:03:49.117Z,7.62
2016-04-19T01:03:59.117Z,7.59
2016-04-19T01:04:09.117Z,7.59
2016-04-19T01:04:19.117Z,7.64
2016-04-19T01:04:29.132Z,7.61
2016-04-19T01:04:39.151Z,7.58
2016-04-19T01:04:49.135Z,7.58
2016-04-19T01:04:59.151Z,7.58
2016-04-19T01:05:09.151Z,7.56
2016-04-19T01:05:19.151Z,7.58
2016-04-19T01:05:29.151Z,7.53
2016-04-19T01:05:39.170Z,7.59
2016-04-19T01:05:49.170Z,7.59
2016-04-19T01:05:59.170Z,7.59
2016-04-19T01:06:09.170Z,7.61
2016-04-19T01:06:19.185Z,7.58
2016-04-19T01:06:29.185Z,7.59
2016-04-19T01:06:39.188Z,7.58
2016-04-19T01:06:49.188Z,7.59
2016-04-19T01:06:59.188Z,7.56
2016-04-19T01:07:09.204Z,7.64
2016-04-19T01:07:19.204Z,7.64
2016-04-19T01:07:29.204Z,7.64
2016-04-19T01:07:39.221Z,7.59
2016-04-19T01:07:49.221Z,7.64
2016-04-19T01:07:59.221Z,7.66
2016-04-19T01:08:09.221Z,7.58
2016-04-19T01:08:19.237Z,7.59
2016-04-19T01:08:29.237Z,7.56
2016-04-19T01:08:39.256Z,7.61
2016-04-19T01:08:49.240Z,7.62
2016-04-19T01:08:59.256Z,7.61
2016-04-19T01:09:09.256Z,7.56
2016-04-19T01:09:19.256Z,7.48
2016-04-19T01:09:29.256Z,7.53
2016-04-19T01:09:39.273Z,7.51
2016-04-19T01:09:49.273Z,7.5
2016-04-19T01:09:59.273Z,7.53
2016-04-19T01:10:09.273Z,7.56
2016-04-19T01:10:19.289Z,7.5
2016-04-19T01:10:29.289Z,7.44
2016-04-19T01:10:39.308Z,7.48
2016-04-19T01:10:49.292Z,7.46
2016-04-19T01:10:59.292Z,7.5
2016-04-19T01:11:09.308Z,7.44
2016-04-19T01:11:19.308Z,7.5
2016-04-19T01:11:29.308Z,7.43
2016-04-19T01:11:39.326Z,7.51
2016-04-19T01:11:49.326Z,7.47
2016-04-19T01:11:59.326Z,7.51
2016-04-19T01:12:09.326Z,7.46
2016-04-19T01:12:19.342Z,7.51
2016-04-19T01:12:29.342Z,7.5
2016-04-19T01:12:39.360Z,7.48
2016-04-19T01:12:49.345Z,7.48
2016-04-19T01:12:59.360Z,7.47
2016-04-19T01:13:09.360Z,7.44
2016-04-19T01:13:19.360Z,7.47
2016-04-19T01:13:29.376Z,7.48
2016-04-19T01:13:39.378Z,7.48
2016-04-19T01:13:49.378Z,7.48
2016-04-19T01:13:59.378Z,7.44
2016-04-19T01:14:09.378Z,7.44
2016-04-19T01:14:19.394Z,7.46
2016-04-19T01:14:29.394Z,7.46
2016-04-19T01:14:39.397Z,7.51
2016-04-19T01:14:49.412Z,7.46
2016-04-19T01:14:59.412Z,7.4
2016-04-19T01:15:09.412Z,7.46
2016-04-19T01:15:19.412Z,7.47
2016-04-19T01:15:29.412Z,7.46
2016-04-19T01:15:39.431Z,7.46
2016-04-19T01:15:49.431Z,7.44
2016-04-19T01:15:59.431Z,7.48
2016-04-19T01:16:09.462Z,7.46
2016-04-19T01:16:19.447Z,7.44
2016-04-19T01:16:29.447Z,7.48
2016-04-19T01:16:39.464Z,7.44
2016-04-19T01:16:49.449Z,7.47
2016-04-19T01:16:59.464Z,7.48
2016-04-19T01:17:09.464Z,7.43
2016-04-19T01:17:19.480Z,7.47
2016-04-19T01:17:29.480Z,7.46
2016-04-19T01:17:39.483Z,7.47
2016-04-19T01:17:49.483Z,7.47
2016-04-19T01:17:59.498Z,7.5
2016-04-19T01:18:09.498Z,7.46
2016-04-19T01:18:19.498Z,7.51
2016-04-19T01:18:29.498Z,7.4
2016-04-19T01:18:39.517Z,7.48
2016-04-19T01:18:49.501Z,7.48
2016-04-19T01:18:59.517Z,7.44
2016-04-19T01:19:09.517Z,7.47
2016-04-19T01:19:19.533Z,7.51
2016-04-19T01:19:29.533Z,7.43
2016-04-19T01:19:39.535Z,7.48
2016-04-19T01:19:49.535Z,7.46
2016-04-19T01:19:59.550Z,7.48
2016-04-19T01:20:09.535Z,7.47
2016-04-19T01:20:19.550Z,7.44
2016-04-19T01:20:29.550Z,7.5
2016-04-19T01:20:39.569Z,7.48
2016-04-19T01:20:49.569Z,7.46
2016-04-19T01:20:59.569Z,7.46
2016-04-19T01:21:09.569Z,7.47
2016-04-19T01:21:19.569Z,7.4
2016-04-19T01:21:29.569Z,7.47
2016-04-19T01:21:39.588Z,7.47
2016-04-19T01:21:49.588Z,7.39
2016-04-19T01:21:59.603Z,7.46
2016-04-19T01:22:09.603Z,7.36
2016-04-19T01:22:19.603Z,7.44
2016-04-19T01:22:29.603Z,7.31
2016-04-19T01:22:39.621Z,7.36
2016-04-19T01:22:49.605Z,7.37
2016-04-19T01:22:59.621Z,7.33
2016-04-19T01:23:09.621Z,7.37
2016-04-19T01:23:19.621Z,7.33
2016-04-19T01:23:29.621Z,7.32
2016-04-19T01:23:39.655Z,7.32
2016-04-19T01:23:49.639Z,7.31
2016-04-19T01:23:59.639Z,7.33
2016-04-19T01:24:09.655Z,7.37
2016-04-19T01:24:19.655Z,7.29
2016-04-19T01:24:29.655Z,7.31
2016-04-19T01:24:39.674Z,7.33
2016-04-19T01:24:49.674Z,7.33
2016-04-19T01:24:59.674Z,7.37
2016-04-19T01:25:09.674Z,7.33
2016-04-19T01:25:19.674Z,7.32
2016-04-19T01:25:29.689Z,7.36
2016-04-19T01:25:39.691Z,7.36
2016-04-19T01:25:49.691Z,7.36
2016-04-19T01:25:59.691Z,7.33
2016-04-19T01:26:09.707Z,7.36
2016-04-19T01:26:19.707Z,7.31
2016-04-19T01:26:29.707Z,7.32
2016-04-19T01:26:39.726Z,7.37
2016-04-19T01:26:49.726Z,7.4
2016-04-19T01:26:59.726Z,7.29
2016-04-19T01:27:09.726Z,7.26
2016-04-19T01:27:19.726Z,7.29
2016-04-19T01:27:29.741Z,7.36
2016-04-19T01:27:39.760Z,7.32
2016-04-19T01:27:49.744Z,7.33
2016-04-19T01:27:59.744Z,7.32
2016-04-19T01:28:09.760Z,7.33
2016-04-19T01:28:19.760Z,7.36
2016-04-19T01:28:29.760Z,7.31
2016-04-19T01:28:39.778Z,7.31
2016-04-19T01:28:49.778Z,7.32
2016-04-19T01:28:59.778Z,7.32
2016-04-19T01:29:09.794Z,7.32
2016-04-19T01:29:19.778Z,7.31
2016-04-19T01:29:29.794Z,7.32
2016-04-19T01:29:39.812Z,7.32
2016-04-19T01:29:49.796Z,7.33
2016-04-19T01:29:59.812Z,7.33
2016-04-19T01:30:09.812Z,7.31
2016-04-19T01:30:19.812Z,7.21
2016-04-19T01:30:29.812Z,7.23
2016-04-19T01:30:39.846Z,7.28
2016-04-19T01:30:49.830Z,7.31
2016-04-19T01:30:59.830Z,7.32
2016-04-19T01:31:09.846Z,7.26
2016-04-19T01:31:19.846Z,7.29
2016-04-19T01:31:29.846Z,7.33
2016-04-19T01:31:39.879Z,7.36
2016-04-19T01:31:49.848Z,7.29
2016-04-19T01:31:59.864Z,7.36
2016-04-19T01:32:09.864Z,7.36
2016-04-19T01:32:19.864Z,7.29
2016-04-19T01:32:29.864Z,7.32
2016-04-19T01:32:39.882Z,7.33
2016-04-19T01:32:49.882Z,7.36
2016-04-19T01:32:59.882Z,7.32
2016-04-19T01:33:09.898Z,7.33
2016-04-19T01:33:19.898Z,7.32
2016-04-19T01:33:29.898Z,7.33
2016-04-19T01:33:39.916Z,7.33
2016-04-19T01:33:49.901Z,7.36
2016-04-19T01:33:59.901Z,7.32
2016-04-19T01:34:09.916Z,7.39
2016-04-19T01:34:19.916Z,7.37
2016-04-19T01:34:29.916Z,7.36
2016-04-19T01:34:39.935Z,7.36
2016-04-19T01:34:49.935Z,7.33
2016-04-19T01:34:59.935Z,7.36
2016-04-19T01:35:09.935Z,7.37
2016-04-19T01:35:19.935Z,7.37
2016-04-19T01:35:29.951Z,7.28
2016-04-19T01:35:39.968Z,7.36
2016-04-19T01:35:49.953Z,7.31
2016-04-19T01:35:59.968Z,7.33
2016-04-19T01:36:09.968Z,7.32
2016-04-19T01:36:19.968Z,7.33
2016-04-19T01:36:29.968Z,7.36
2016-04-19T01:36:39.987Z,7.32
2016-04-19T01:36:49.987Z,7.32
2016-04-19T01:37:00.003Z,7.36
2016-04-19T01:37:09.987Z,7.37
2016-04-19T01:37:19.987Z,7.31
2016-04-19T01:37:30.003Z,7.31
2016-04-19T01:37:40.020Z,7.33
2016-04-19T01:37:50.005Z,7.31
2016-04-19T01:38:00.005Z,7.36
2016-04-19T01:38:10.020Z,7.33
2016-04-19T01:38:20.020Z,7.36
2016-04-19T01:38:30.036Z,7.31
2016-04-19T01:38:40.055Z,7.32
2016-04-19T01:38:50.040Z,7.29
2016-04-19T01:39:00.040Z,7.26
2016-04-19T01:39:10.040Z,7.25
2016-04-19T01:39:20.055Z,7.25
2016-04-19T01:39:30.055Z,7.28
2016-04-19T01:39:40.073Z,7.22
2016-04-19T01:39:50.057Z,7.28
2016-04-19T01:40:00.057Z,7.28
2016-04-19T01:40:10.073Z,7.29
2016-04-19T01:40:20.073Z,7.29
2016-04-19T01:40:30.073Z,7.26
2016-04-19T01:40:40.092Z,7.25
2016-04-19T01:40:50.092Z,7.28
2016-04-19T01:41:00.092Z,7.22
2016-04-19T01:41:10.092Z,7.32
2016-04-19T01:41:20.092Z,7.36
2016-04-19T01:41:30.107Z,7.28
2016-04-19T01:41:40.109Z,7.29
2016-04-19T01:41:50.125Z,7.23
2016-04-19T01:42:00.125Z,7.33
2016-04-19T01:42:10.125Z,7.36
2016-04-19T01:42:20.125Z,7.31
2016-04-19T01:42:30.125Z,7.28
2016-04-19T01:42:40.144Z,7.26
2016-04-19T01:42:50.144Z,7.26
2016-04-19T01:43:00.144Z,7.33
2016-04-19T01:43:10.144Z,7.28
2016-04-19T01:43:20.159Z,7.25
2016-04-19T01:43:30.159Z,7.29
2016-04-19T01:43:40.178Z,7.36
2016-04-19T01:43:50.162Z,7.22
2016-04-19T01:44:00.178Z,7.19
2016-04-19T01:44:10.178Z,7.23
2016-04-19T01:44:20.178Z,7.28
2016-04-19T01:44:30.178Z,7.28
2016-04-19T01:44:40.195Z,7.28
2016-04-19T01:44:50.195Z,7.25
2016-04-19T01:45:00.195Z,7.1
2016-04-19T01:45:10.195Z,7.22
2016-04-19T01:45:20.211Z,7.29
2016-04-19T01:45:30.211Z,7.18
2016-04-19T01:45:40.230Z,7.22
2016-04-19T01:45:50.214Z,7.31
2016-04-19T01:46:00.230Z,7.18
2016-04-19T01:46:10.230Z,7.18
2016-04-19T01:46:20.230Z,7.28
2016-04-19T01:46:30.230Z,7.15
2016-04-19T01:46:40.248Z,7.26
2016-04-19T01:46:50.248Z,7.23
2016-04-19T01:47:00.248Z,7.36
2016-04-19T01:47:10.248Z,7.28
2016-04-19T01:47:20.264Z,7.31
2016-04-19T01:47:30.264Z,7.32
2016-04-19T01:47:40.283Z,7.28
2016-04-19T01:47:50.267Z,7.33
2016-04-19T01:48:00.283Z,7.32
2016-04-19T01:48:10.283Z,7.32
2016-04-19T01:48:20.283Z,7.28
2016-04-19T01:48:30.283Z,7.33
2016-04-19T01:48:40.300Z,7.25
2016-04-19T01:48:50.316Z,7.32
2016-04-19T01:49:00.300Z,7.28
2016-04-19T01:49:10.300Z,7.21
2016-04-19T01:49:20.316Z,7.29
2016-04-19T01:49:30.316Z,7.22
2016-04-19T01:49:40.334Z,7.29
2016-04-19T01:49:50.319Z,7.28
2016-04-19T01:50:00.334Z,7.33
2016-04-19T01:50:10.334Z,7.31
2016-04-19T01:50:20.334Z,7.25
2016-04-19T01:50:30.350Z,7.26
2016-04-19T01:50:40.352Z,7.26
2016-04-19T01:50:50.352Z,7.31
2016-04-19T01:51:00.352Z,7.28
2016-04-19T01:51:10.352Z,7.29
2016-04-19T01:51:20.368Z,7.22
2016-04-19T01:51:30.368Z,7.32
2016-04-19T01:51:40.387Z,7.25
2016-04-19T01:51:50.372Z,7.33
2016-04-19T01:52:00.387Z,7.29
2016-04-19T01:52:10.387Z,7.25
2016-04-19T01:52:20.387Z,7.28
2016-04-19T01:52:30.387Z,7.32
2016-04-19T01:52:40.404Z,7.31
2016-04-19T01:52:50.404Z,7.36
2016-04-19T01:53:00.404Z,7.28
2016-04-19T01:53:10.404Z,7.32
2016-04-19T01:53:20.420Z,7.21
2016-04-19T01:53:30.420Z,7.33
2016-04-19T01:53:40.438Z,7.32
2016-04-19T01:53:50.438Z,7.36
2016-04-19T01:54:00.438Z,7.28
2016-04-19T01:54:10.438Z,7.33
2016-04-19T01:54:20.438Z,7.25
2016-04-19T01:54:30.438Z,7.26
2016-04-19T01:54:40.458Z,7.29
2016-04-19T01:54:50.458Z,7.29
2016-04-19T01:55:00.458Z,7.25
2016-04-19T01:55:10.458Z,7.23
2016-04-19T01:55:20.473Z,7.29
2016-04-19T01:55:30.473Z,7.28
2016-04-19T01:55:40.507Z,7.26
2016-04-19T01:55:50.475Z,7.33
2016-04-19T01:56:00.491Z,7.26
2016-04-19T01:56:10.491Z,7.28
2016-04-19T01:56:20.491Z,7.29
2016-04-19T01:56:30.491Z,7.19
2016-04-19T01:56:40.510Z,7.26
2016-04-19T01:56:50.510Z,7.25
2016-04-19T01:57:00.510Z,7.32
2016-04-19T01:57:10.510Z,7.32
2016-04-19T01:57:20.525Z,7.28
2016-04-19T01:57:30.525Z,7.32
2016-04-19T01:57:40.543Z,7.32
2016-04-19T01:57:50.527Z,7.29
2016-04-19T01:58:00.543Z,7.29
2016-04-19T01:58:10.543Z,7.25
2016-04-19T01:58:20.543Z,7.15
2016-04-19T01:58:30.543Z,7.26
2016-04-19T01:58:40.562Z,7.18
2016-04-19T01:58:50.562Z,7.14
2016-04-19T01:59:00.562Z,7.19
2016-04-19T01:59:10.562Z,7.25
2016-04-19T01:59:20.577Z,7.15
2016-04-19T01:59:30.577Z,7.28
2016-04-19T01:59:40.610Z,7.13
2016-04-19T01:59:50.579Z,7.14
2016-04-19T02:00:00.595Z,7.13
2016-04-19T02:00:10.595Z,7.18
2016-04-19T02:00:20.595Z,7.18
2016-04-19T02:00:30.595Z,7.28
2016-04-19T02:00:40.613Z,7.13
2016-04-19T02:00:50.613Z,7.22
2016-04-19T02:01:00.613Z,7.28
2016-04-19T02:01:10.629Z,7.31
2016-04-19T02:01:20.613Z,7.14
2016-04-19T02:01:30.629Z,7.26
2016-04-19T02:01:40.648Z,7.21
2016-04-19T02:01:50.648Z,7.21
2016-04-19T02:02:00.648Z,7.21
2016-04-19T02:02:10.648Z,7.18
2016-04-19T02:02:20.648Z,7.13
2016-04-19T02:02:30.648Z,7.23
2016-04-19T02:02:40.666Z,7.18
2016-04-19T02:02:50.666Z,7.25
2016-04-19T02:03:00.666Z,7.1
2016-04-19T02:03:10.682Z,7.14
2016-04-19T02:03:20.682Z,7.22
2016-04-19T02:03:30.682Z,7.22
2016-04-19T02:03:40.700Z,7.25
2016-04-19T02:03:50.684Z,7.23
2016-04-19T02:04:00.684Z,7.19
2016-04-19T02:04:10.700Z,7.19
2016-04-19T02:04:20.700Z,7.14
2016-04-19T02:04:30.715Z,7.14
2016-04-19T02:04:40.718Z,7.15
2016-04-19T02:04:50.718Z,7.19
2016-04-19T02:05:00.718Z,7.26
2016-04-19T02:05:10.718Z,7.19
2016-04-19T02:05:20.734Z,7.15
2016-04-19T02:05:30.734Z,7.19
2016-04-19T02:05:40.752Z,7.21
2016-04-19T02:05:50.752Z,7.18
2016-04-19T02:06:00.752Z,7.14
2016-04-19T02:06:10.752Z,7.19
2016-04-19T02:06:20.752Z,7.13
2016-04-19T02:06:30.752Z,7.14
2016-04-19T02:06:40.787Z,7.11
2016-04-19T02:06:50.771Z,7.14
2016-04-19T02:07:00.771Z,7.18
2016-04-19T02:07:10.771Z,7.14
2016-04-19T02:07:20.787Z,7.1
2016-04-19T02:07:30.787Z,7.07
2016-04-19T02:07:40.804Z,7.11
2016-04-19T02:07:50.804Z,7.14
2016-04-19T02:08:00.804Z,7.07
2016-04-19T02:08:10.804Z,7.15
2016-04-19T02:08:20.804Z,7.14
2016-04-19T02:08:30.820Z,7.13
2016-04-19T02:08:40.823Z,7.1
2016-04-19T02:08:50.823Z,7.14
2016-04-19T02:09:00.823Z,7.11
2016-04-19T02:09:10.823Z,7.14
2016-04-19T02:09:20.839Z,7.11
2016-04-19T02:09:30.839Z,7.07
2016-04-19T02:09:40.857Z,7.15
2016-04-19T02:09:50.842Z,7.13
2016-04-19T02:10:00.857Z,7.08
2016-04-19T02:10:10.857Z,7.14
2016-04-19T02:10:20.857Z,7.18
2016-04-19T02:10:30.857Z,7.14
2016-04-19T02:10:40.891Z,7.13
2016-04-19T02:10:50.876Z,7.14
2016-04-19T02:11:00.876Z,7.18
2016-04-19T02:11:10.876Z,7.18
2016-04-19T02:11:20.891Z,7.15
2016-04-19T02:11:30.891Z,7.14
2016-04-19T02:11:40.909Z,7.18
2016-04-19T02:11:50.893Z,7.1
2016-04-19T02:12:00.909Z,7.14
2016-04-19T02:12:10.909Z,7.13
2016-04-19T02:12:20.909Z,7.14
2016-04-19T02:12:30.909Z,7.21
2016-04-19T02:12:40.928Z,7.11
2016-04-19T02:12:50.928Z,7.15
2016-04-19T02:13:00.928Z,7.18
2016-04-19T02:13:10.928Z,7.18
2016-04-19T02:13:20.943Z,7.15